createdAt,value
2018-06-02T00:01:36.535Z,85.45
2018-06-02T00:04:05.568Z,85.57
2018-06-02T00:06:33.831Z,85.48
2018-06-02T00:09:02.899Z,85.72
2018-06-02T00:11:31.175Z,85.56
2018-06-02T00:13:59.454Z,85.57
2018-06-02T00:16:27.723Z,85.59
2018-06-02T00:18:55.989Z,85.60
2018-06-02T00:21:24.279Z,85.94
2018-06-02T00:23:52.558Z,86.22
2018-06-02T00:26:20.839Z,85.55
2018-06-02T00:28:49.115Z,85.84
2018-06-02T00:31:17.449Z,85.19
2018-06-02T00:33:46.491Z,85.06
2018-06-02T00:36:14.771Z,85.56
2018-06-02T00:38:43.059Z,86.10
2018-06-02T00:41:11.449Z,86.04
2018-06-02T00:43:39.703Z,86.40
2018-06-02T00:46:08.006Z,86.44
2018-06-02T00:48:37.043Z,85.05
2018-06-02T00:51:05.348Z,85.61
2018-06-02T00:53:33.648Z,85.80
2018-06-02T00:56:01.930Z,85.61
2018-06-02T00:58:30.241Z,85.79
2018-06-02T01:00:58.528Z,85.71
2018-06-02T01:03:27.283Z,85.60
2018-06-02T01:05:55.581Z,85.84
2018-06-02T01:08:24.620Z,86.25
2018-06-02T01:10:52.925Z,85.95
2018-06-02T01:13:21.275Z,85.46
2018-06-02T01:15:49.655Z,85.25
2018-06-02T01:18:18.676Z,84.95
2018-06-02T01:20:46.978Z,84.23
2018-06-02T01:23:16.026Z,84.40
2018-06-02T01:25:44.297Z,83.91
2018-06-02T01:31:09.769Z,83.99
2018-06-02T01:33:38.079Z,84.75
2018-06-02T01:36:06.404Z,84.56
2018-06-02T01:38:35.463Z,84.86
2018-06-02T01:41:03.714Z,85.00
2018-06-02T01:43:33.253Z,84.66
2018-06-02T01:46:01.510Z,84.78
2018-06-02T01:48:29.773Z,84.38
2018-06-02T01:50:58.053Z,83.69
2018-06-02T01:53:26.351Z,83.58
2018-06-02T01:55:56.121Z,84.06
2018-06-02T01:58:24.396Z,84.51
2018-06-02T02:00:52.728Z,84.66
2018-06-02T02:03:21.807Z,84.89
2018-06-02T02:05:50.105Z,84.48
2018-06-02T02:08:18.408Z,83.51
2018-06-02T02:10:46.690Z,83.65
2018-06-02T02:13:14.944Z,83.41
2018-06-02T02:15:43.979Z,83.20
2018-06-02T02:18:12.249Z,83.09
2018-06-02T02:20:41.322Z,83.41
2018-06-02T02:23:09.685Z,83.74
2018-06-02T02:25:37.977Z,83.47
2018-06-02T02:28:06.258Z,83.99
2018-06-02T02:30:34.527Z,83.74
2018-06-02T02:33:02.845Z,83.65
2018-06-02T02:35:31.122Z,83.22
2018-06-02T02:37:59.422Z,83.41
2018-06-02T02:40:27.895Z,83.40
2018-06-02T02:42:56.155Z,83.92
2018-06-02T02:45:25.206Z,83.65
2018-06-02T02:47:53.483Z,83.17
2018-06-02T02:50:21.766Z,83.36
2018-06-02T02:52:50.097Z,83.07
2018-06-02T02:55:18.433Z,82.80
2018-06-02T02:57:47.496Z,82.62
2018-06-02T03:00:15.796Z,82.98
2018-06-02T03:02:44.066Z,83.42
2018-06-02T03:05:12.324Z,82.81
2018-06-02T03:07:41.374Z,83.01
2018-06-02T03:10:09.662Z,83.15
2018-06-02T03:12:37.941Z,83.34
2018-06-02T03:15:06.312Z,82.75
2018-06-02T03:17:34.571Z,83.02
2018-06-02T03:20:03.657Z,82.64
2018-06-02T03:22:31.919Z,83.01
2018-06-02T03:25:00.309Z,83.06
2018-06-02T03:27:28.609Z,82.72
2018-06-02T03:29:56.909Z,82.90
2018-06-02T03:32:25.167Z,82.30
2018-06-02T03:34:53.481Z,83.00
2018-06-02T03:37:21.783Z,82.47
2018-06-02T03:39:50.080Z,82.41
2018-06-02T03:42:18.373Z,82.77
2018-06-02T03:44:46.737Z,82.79
2018-06-02T03:47:14.992Z,82.54
2018-06-02T03:49:44.011Z,83.08
2018-06-02T03:52:12.331Z,82.91
2018-06-02T03:54:40.605Z,82.98
2018-06-02T03:57:08.854Z,83.21
2018-06-02T03:59:37.151Z,82.41
2018-06-02T04:02:05.432Z,81.92
2018-06-02T04:04:33.714Z,82.56
2018-06-02T04:07:02.025Z,82.34
2018-06-02T04:09:30.271Z,82.06
2018-06-02T04:11:58.562Z,81.46
2018-06-02T04:14:26.842Z,81.59
2018-06-02T04:16:55.136Z,82.01
2018-06-02T04:19:23.426Z,81.86
2018-06-02T04:21:51.703Z,81.37
2018-06-02T04:24:20.085Z,81.74
2018-06-02T04:26:49.200Z,81.25
2018-06-02T04:29:17.523Z,81.37
2018-06-02T04:31:45.803Z,81.90
2018-06-02T04:34:14.108Z,81.72
2018-06-02T04:36:42.393Z,81.57
2018-06-02T04:39:10.761Z,81.63
2018-06-02T04:41:57.767Z,81.50
2018-06-02T04:44:26.865Z,81.37
2018-06-02T04:46:55.140Z,81.43
2018-06-02T04:49:23.428Z,81.22
2018-06-02T04:51:51.715Z,82.28
2018-06-02T04:54:19.998Z,81.91
2018-06-02T04:56:48.377Z,81.77
2018-06-02T04:59:16.638Z,82.03
2018-06-02T05:01:44.893Z,81.59
2018-06-02T05:04:13.965Z,81.50
2018-06-02T05:06:42.433Z,81.16
2018-06-02T05:09:10.704Z,80.26
2018-06-02T05:11:39.744Z,80.70
2018-06-02T05:14:08.029Z,80.85
2018-06-02T05:16:36.311Z,81.14
2018-06-02T05:19:04.602Z,81.01
2018-06-02T05:21:32.887Z,81.22
2018-06-02T05:24:01.169Z,81.07
2018-06-02T05:26:30.210Z,80.58
2018-06-02T05:28:58.586Z,80.99
2018-06-02T05:31:26.849Z,80.96
2018-06-02T05:33:55.879Z,80.73
2018-06-02T05:36:24.179Z,80.55
2018-06-02T05:38:52.483Z,80.48
2018-06-02T05:41:20.767Z,80.76
2018-06-02T05:43:49.107Z,80.88
2018-06-02T05:46:17.718Z,81.10
2018-06-02T05:48:46.778Z,81.11
2018-06-02T05:51:15.083Z,81.11
2018-06-02T05:53:43.369Z,80.85
2018-06-02T05:56:11.714Z,80.91
2018-06-02T05:58:39.994Z,81.20
2018-06-02T06:01:09.042Z,81.69
2018-06-02T06:03:37.336Z,81.67
2018-06-02T06:06:05.599Z,81.80
2018-06-02T06:08:33.881Z,82.33
2018-06-02T06:11:02.189Z,82.01
2018-06-02T06:13:30.467Z,81.31
2018-06-02T06:15:58.753Z,81.14
2018-06-02T06:18:27.087Z,80.61
2018-06-02T06:20:55.427Z,79.97
2018-06-02T06:23:24.551Z,79.82
2018-06-02T06:25:52.984Z,80.05
2018-06-02T06:28:21.339Z,79.65
2018-06-02T06:30:49.639Z,80.37
2018-06-02T06:33:17.968Z,79.85
2018-06-02T06:35:46.258Z,80.54
2018-06-02T06:38:14.521Z,80.91
2018-06-02T06:40:42.795Z,79.93
2018-06-02T06:43:11.075Z,79.66
2018-06-02T06:45:39.343Z,78.59
2018-06-02T06:48:07.652Z,78.53
2018-06-02T06:50:36.696Z,78.43
2018-06-02T06:53:04.939Z,78.84
2018-06-02T06:55:33.983Z,78.63
2018-06-02T06:58:02.254Z,79.03
2018-06-02T07:00:30.524Z,78.19
2018-06-02T07:02:59.695Z,77.56
2018-06-02T07:05:28.272Z,78.32
2018-06-02T07:07:56.527Z,78.04
2018-06-02T07:10:24.796Z,77.93
2018-06-02T07:12:53.211Z,78.14
2018-06-02T07:15:22.269Z,77.78
2018-06-02T07:17:50.709Z,77.75
2018-06-02T07:20:19.036Z,78.14
2018-06-02T07:22:47.354Z,77.66
2018-06-02T07:25:15.719Z,77.05
2018-06-02T07:27:44.002Z,78.39
2018-06-02T07:30:12.282Z,77.86
2018-06-02T07:32:40.664Z,76.43
2018-06-02T07:35:08.967Z,76.15
2018-06-02T07:37:37.234Z,74.69
2018-06-02T07:40:06.363Z,74.46
2018-06-02T07:42:34.630Z,74.30
2018-06-02T07:45:03.662Z,74.18
2018-06-02T07:47:31.952Z,73.38
2018-06-02T07:50:00.308Z,73.15
2018-06-02T07:52:28.572Z,72.35
2018-06-02T07:54:56.921Z,71.97
2018-06-02T07:57:25.937Z,71.94
2018-06-02T07:59:54.199Z,71.49
2018-06-02T08:02:23.343Z,71.90
2018-06-02T08:04:51.632Z,71.45
2018-06-02T08:07:20.250Z,71.71
2018-06-02T08:09:48.596Z,72.23
2018-06-02T08:12:16.959Z,72.42
2018-06-02T08:14:45.233Z,72.45
2018-06-02T08:17:13.580Z,72.37
2018-06-02T08:19:41.882Z,72.49
2018-06-02T08:22:10.142Z,72.02
2018-06-02T08:24:39.192Z,72.60
2018-06-02T08:27:07.451Z,72.81
2018-06-02T08:29:38.734Z,73.30
2018-06-02T08:32:06.995Z,73.72
2018-06-02T08:34:35.260Z,73.27
2018-06-02T08:37:03.542Z,73.05
2018-06-02T08:39:31.834Z,72.80
2018-06-02T08:42:00.088Z,72.03
2018-06-02T08:44:28.374Z,71.52
2018-06-02T08:46:56.646Z,70.24
2018-06-02T08:49:24.919Z,69.41
2018-06-02T08:51:54.019Z,70.08
2018-06-02T08:54:23.213Z,69.74
2018-06-02T08:56:51.539Z,69.82
2018-06-02T08:59:19.831Z,70.26
2018-06-02T09:01:48.180Z,70.71
2018-06-02T09:04:16.447Z,69.90
2018-06-02T09:06:44.717Z,70.49
2018-06-02T09:09:13.016Z,70.61
2018-06-02T09:11:41.297Z,70.00
2018-06-02T09:14:09.558Z,69.82
2018-06-02T09:16:38.755Z,70.87
2018-06-02T09:19:07.005Z,70.08
2018-06-02T09:21:35.261Z,69.41
2018-06-02T09:24:04.350Z,69.29
2018-06-02T09:26:32.634Z,69.35
2018-06-02T09:29:00.883Z,68.28
2018-06-02T09:31:29.177Z,67.51
2018-06-02T09:33:57.469Z,66.14
2018-06-02T09:36:25.724Z,66.77
2018-06-02T09:38:54.023Z,65.68
2018-06-02T09:41:22.350Z,63.89
2018-06-02T09:43:50.614Z,63.10
2018-06-02T09:46:37.485Z,64.71
2018-06-02T09:49:14.010Z,63.06
2018-06-02T09:51:45.051Z,61.99
2018-06-02T09:54:13.475Z,61.86
2018-06-02T09:56:41.790Z,61.94
2018-06-02T09:59:10.064Z,60.70
2018-06-02T10:01:38.344Z,60.61
2018-06-02T10:04:06.604Z,60.63
2018-06-02T10:06:34.898Z,61.20
2018-06-02T10:09:03.933Z,61.13
2018-06-02T10:11:32.221Z,60.81
2018-06-02T10:14:00.511Z,60.19
2018-06-02T10:16:28.782Z,60.63
2018-06-02T10:18:57.829Z,60.86
2018-06-02T10:21:26.145Z,61.17
2018-06-02T10:23:54.601Z,61.67
2018-06-02T10:26:22.901Z,61.49
2018-06-02T10:28:51.286Z,60.99
2018-06-02T10:31:19.852Z,61.51
2018-06-02T10:33:48.889Z,61.95
2018-06-02T10:36:17.186Z,61.49
2018-06-02T10:38:45.458Z,59.81
2018-06-02T10:41:14.518Z,59.02
2018-06-02T10:43:43.191Z,59.64
2018-06-02T10:46:11.507Z,58.92
2018-06-02T10:48:39.792Z,57.89
2018-06-02T10:51:08.095Z,56.93
2018-06-02T10:53:36.376Z,56.98
2018-06-02T10:56:04.818Z,57.85
2018-06-02T10:58:33.123Z,58.40
2018-06-02T11:01:01.400Z,58.75
2018-06-02T11:03:29.677Z,57.85
2018-06-02T11:05:58.799Z,58.78
2018-06-02T11:08:27.068Z,58.12
2018-06-02T11:10:56.109Z,57.17
2018-06-02T11:13:24.434Z,57.11
2018-06-02T11:15:52.763Z,57.46
2018-06-02T11:18:21.840Z,56.82
2018-06-02T11:20:50.183Z,57.22
2018-06-02T11:23:18.465Z,58.14
2018-06-02T11:25:46.805Z,59.66
2018-06-02T11:28:15.027Z,60.05
2018-06-02T11:30:44.039Z,59.87
2018-06-02T11:33:13.172Z,60.03
2018-06-02T11:35:41.490Z,58.97
2018-06-02T11:38:09.743Z,58.34
2018-06-02T11:40:38.031Z,57.04
2018-06-02T11:43:07.086Z,57.47
2018-06-02T11:45:35.331Z,56.78
2018-06-02T11:48:03.588Z,56.75
2018-06-02T11:50:32.849Z,56.52
2018-06-02T11:53:01.114Z,56.50
2018-06-02T11:55:30.131Z,54.75
2018-06-02T11:57:58.388Z,53.97
2018-06-02T12:00:26.667Z,53.30
2018-06-02T12:02:54.910Z,52.80
2018-06-02T12:05:23.188Z,49.94
2018-06-02T12:07:51.523Z,47.85
2018-06-02T12:10:19.918Z,47.49
2018-06-02T12:12:48.237Z,46.74
2018-06-02T12:15:16.489Z,45.93
2018-06-02T12:17:45.275Z,46.44
2018-06-02T12:20:17.712Z,47.65
2018-06-02T12:22:50.106Z,49.14
2018-06-02T12:25:26.677Z,49.58
2018-06-02T12:28:09.615Z,48.38
2018-06-02T12:30:44.323Z,50.05
2018-06-02T12:33:12.989Z,48.23
2018-06-02T12:35:45.604Z,50.48
2018-06-02T12:38:14.941Z,50.68
2018-06-02T12:40:51.436Z,50.11
2018-06-02T12:43:20.277Z,50.45
2018-06-02T12:45:49.319Z,49.87
2018-06-02T12:48:17.583Z,50.00
2018-06-02T12:50:46.800Z,51.17
2018-06-02T12:53:15.204Z,50.72
2018-06-02T12:55:44.198Z,50.65
2018-06-02T12:58:12.487Z,50.70
2018-06-02T13:00:40.735Z,51.59
2018-06-02T13:03:09.019Z,51.58
2018-06-02T13:05:37.289Z,51.42
2018-06-02T13:08:05.536Z,51.82
2018-06-02T13:10:33.812Z,51.54
2018-06-02T13:13:02.851Z,51.10
2018-06-02T13:15:31.115Z,50.14
2018-06-02T13:18:00.132Z,48.38
2018-06-02T13:20:29.174Z,48.90
2018-06-02T13:22:57.442Z,47.46
2018-06-02T13:25:25.683Z,47.06
2018-06-02T13:27:53.985Z,47.56
2018-06-02T13:30:22.312Z,48.40
2018-06-02T13:32:51.357Z,48.39
2018-06-02T13:35:19.664Z,47.92
2018-06-02T13:37:48.013Z,48.09
2018-06-02T13:40:16.264Z,48.42
2018-06-02T13:42:45.313Z,48.55
2018-06-02T13:45:13.590Z,49.53
2018-06-02T13:47:41.850Z,49.49
2018-06-02T13:50:10.994Z,49.05
2018-06-02T13:52:39.261Z,47.68
2018-06-02T13:55:08.278Z,47.85
2018-06-02T13:57:36.606Z,47.66
2018-06-02T14:00:05.603Z,47.70
2018-06-02T14:02:33.865Z,47.35
2018-06-02T14:05:02.169Z,47.76
2018-06-02T14:07:30.428Z,47.06
2018-06-02T14:09:59.457Z,46.64
2018-06-02T14:12:27.834Z,46.89
2018-06-02T14:14:56.975Z,47.15
2018-06-02T14:17:25.282Z,46.56
2018-06-02T14:19:53.575Z,46.86
2018-06-02T14:22:21.885Z,47.45
2018-06-02T14:24:50.230Z,48.87
2018-06-02T14:27:18.530Z,50.00
2018-06-02T14:29:46.785Z,51.96
2018-06-02T14:32:15.058Z,53.07
2018-06-02T14:34:44.174Z,54.12
2018-06-02T14:37:13.372Z,55.15
2018-06-02T14:39:41.638Z,55.66
2018-06-02T14:42:09.917Z,55.53
2018-06-02T14:44:38.196Z,55.41
2018-06-02T14:47:06.473Z,54.72
2018-06-02T14:49:35.500Z,54.50
2018-06-02T14:52:03.860Z,55.38
2018-06-02T14:54:32.899Z,54.07
2018-06-02T14:57:01.189Z,54.92
2018-06-02T14:59:29.440Z,55.04
2018-06-02T15:01:57.728Z,54.58
2018-06-02T15:04:26.008Z,54.91
2018-06-02T15:06:54.337Z,54.15
2018-06-02T15:09:22.640Z,53.70
2018-06-02T15:11:50.994Z,53.21
2018-06-02T15:14:19.331Z,53.53
2018-06-02T15:16:47.579Z,53.74
2018-06-02T15:19:16.633Z,53.98
2018-06-02T15:21:44.897Z,54.39
2018-06-02T15:24:13.161Z,54.82
2018-06-02T15:26:41.486Z,55.31
2018-06-02T15:29:09.776Z,54.67
2018-06-02T15:31:38.079Z,54.81
2018-06-02T15:34:06.373Z,55.51
2018-06-02T15:36:34.628Z,54.89
2018-06-02T15:39:03.672Z,54.05
2018-06-02T15:41:31.980Z,54.32
2018-06-02T15:44:00.278Z,54.69
2018-06-02T15:46:28.552Z,55.11
2018-06-02T15:48:56.819Z,55.48
2018-06-02T15:51:25.080Z,55.80
2018-06-02T15:53:54.121Z,55.20
2018-06-02T15:56:22.428Z,56.10
2018-06-02T15:58:50.718Z,57.17
2018-06-02T16:01:18.999Z,57.68
2018-06-02T16:03:48.160Z,58.38
2018-06-02T16:06:16.469Z,57.25
2018-06-02T16:08:44.774Z,56.68
2018-06-02T16:11:13.084Z,58.38
2018-06-02T16:13:41.439Z,57.94
2018-06-02T16:16:10.461Z,58.10
2018-06-02T16:18:38.756Z,59.20
2018-06-02T16:21:07.042Z,58.50
2018-06-02T16:23:35.316Z,59.22
2018-06-02T16:26:04.364Z,59.00
2018-06-02T16:28:32.676Z,58.86
2018-06-02T16:31:00.946Z,59.11
2018-06-02T16:33:29.242Z,57.31
2018-06-02T16:35:57.604Z,56.99
2018-06-02T16:38:25.877Z,57.93
2018-06-02T16:40:54.920Z,58.46
2018-06-02T16:43:23.985Z,58.80
2018-06-02T16:45:52.259Z,58.57
2018-06-02T16:48:21.613Z,58.53
2018-06-02T16:50:50.630Z,58.06
2018-06-02T16:53:18.954Z,57.10
2018-06-02T16:55:47.231Z,56.85
2018-06-02T16:58:15.515Z,56.50
2018-06-02T17:00:43.770Z,57.03
2018-06-02T17:03:12.834Z,56.61
2018-06-02T17:05:41.108Z,57.17
2018-06-02T17:08:09.361Z,57.09
2018-06-02T17:10:37.733Z,57.42
2018-06-02T17:13:06.031Z,57.13
2018-06-02T17:15:35.068Z,56.98
2018-06-02T17:18:03.368Z,57.09
2018-06-02T17:20:31.647Z,56.71
2018-06-02T17:22:59.922Z,57.08
2018-06-02T17:25:28.959Z,57.79
2018-06-02T17:27:57.981Z,57.82
2018-06-02T17:30:26.258Z,58.14
2018-06-02T17:32:54.597Z,58.85
2018-06-02T17:35:22.968Z,58.36
2018-06-02T17:37:51.289Z,58.53
2018-06-02T17:40:20.342Z,59.32
2018-06-02T17:42:48.675Z,60.01
2018-06-02T17:45:16.942Z,60.84
2018-06-02T17:47:45.272Z,60.45
2018-06-02T17:50:13.606Z,61.12
2018-06-02T17:52:41.887Z,60.65
2018-06-02T17:55:10.175Z,61.42
2018-06-02T17:57:38.427Z,61.54
2018-06-02T18:00:07.471Z,61.52
2018-06-02T18:02:35.762Z,61.52
2018-06-02T18:05:04.027Z,60.91
2018-06-02T18:07:33.110Z,60.33
2018-06-02T18:10:01.454Z,60.46
2018-06-02T18:12:29.738Z,60.32
2018-06-02T18:14:58.766Z,60.75
2018-06-02T18:17:27.051Z,60.22
2018-06-02T18:19:55.366Z,60.11
2018-06-02T18:22:23.655Z,60.47
2018-06-02T18:24:51.981Z,60.79
2018-06-02T18:27:20.315Z,60.58
2018-06-02T18:29:49.333Z,60.98
2018-06-02T18:32:17.616Z,60.23
2018-06-02T18:34:45.929Z,60.65
2018-06-02T18:37:14.185Z,61.08
2018-06-02T18:39:42.498Z,60.51
2018-06-02T18:42:10.768Z,60.71
2018-06-02T18:44:39.213Z,60.90
2018-06-02T18:47:07.524Z,60.47
2018-06-02T18:49:36.550Z,61.20
2018-06-02T18:52:04.817Z,60.62
2018-06-02T18:54:33.856Z,60.21
2018-06-02T18:57:02.129Z,60.50
2018-06-02T18:59:31.137Z,60.71
2018-06-02T19:02:09.415Z,60.90
2018-06-02T19:04:38.365Z,61.05
2018-06-02T19:07:14.824Z,61.19
2018-06-02T19:09:43.328Z,61.86
2018-06-02T19:12:27.801Z,61.53
2018-06-02T19:15:11.315Z,61.97
2018-06-02T19:17:43.343Z,61.70
2018-06-02T19:20:13.130Z,62.63
2018-06-02T19:22:44.476Z,62.01
2018-06-02T19:25:15.162Z,62.10
2018-06-02T19:27:43.496Z,62.33
2018-06-02T19:30:12.236Z,63.21
2018-06-02T19:32:40.515Z,63.86
2018-06-02T19:35:08.773Z,63.22
2018-06-02T19:37:37.043Z,63.65
2018-06-02T19:40:07.017Z,64.08
2018-06-02T19:42:35.318Z,64.42
2018-06-02T19:45:03.599Z,64.73
2018-06-02T19:47:31.866Z,65.14
2018-06-02T19:50:00.428Z,65.39
2018-06-02T19:52:31.257Z,65.05
2018-06-02T19:55:01.502Z,65.14
2018-06-02T19:57:30.049Z,64.39
2018-06-02T19:59:58.366Z,64.00
2018-06-02T20:02:26.886Z,63.88
2018-06-02T20:04:55.927Z,64.32
2018-06-02T20:07:25.541Z,64.58
2018-06-02T20:09:55.328Z,64.52
2018-06-02T20:12:23.728Z,63.96
2018-06-02T20:14:54.069Z,64.84
2018-06-02T20:17:22.366Z,65.13
2018-06-02T20:19:51.506Z,63.92
2018-06-02T20:22:19.914Z,63.98
2018-06-02T20:24:48.261Z,63.79
2018-06-02T20:27:16.534Z,64.22
2018-06-02T20:29:44.840Z,63.86
2018-06-02T20:32:13.174Z,64.15
2018-06-02T20:34:41.464Z,63.87
2018-06-02T20:37:09.749Z,64.28
2018-06-02T20:39:38.023Z,64.36
2018-06-02T20:42:06.301Z,65.30
2018-06-02T20:44:35.404Z,65.16
2018-06-02T20:47:04.505Z,65.36
2018-06-02T20:49:32.841Z,65.08
2018-06-02T20:52:01.173Z,65.92
2018-06-02T20:54:29.549Z,66.03
2018-06-02T20:56:57.927Z,65.62
2018-06-02T20:59:26.345Z,66.46
2018-06-02T21:01:54.882Z,66.33
2018-06-02T21:04:23.693Z,66.62
2018-06-02T21:06:52.140Z,67.36
2018-06-02T21:09:20.583Z,67.70
2018-06-02T21:11:49.626Z,67.86
2018-06-02T21:14:17.900Z,67.48
2018-06-02T21:16:46.169Z,67.69
2018-06-02T21:19:14.450Z,67.46
2018-06-02T21:21:42.753Z,67.35
2018-06-02T21:24:11.002Z,66.92
2018-06-02T21:26:39.283Z,66.93
2018-06-02T21:29:07.589Z,66.26
2018-06-02T21:31:35.863Z,66.98
2018-06-02T21:34:04.132Z,67.70
2018-06-02T21:36:32.470Z,67.79
2018-06-02T21:39:01.552Z,66.46
2018-06-02T21:41:29.811Z,66.95
2018-06-02T21:43:58.105Z,67.77
2018-06-02T21:46:26.367Z,67.84
2018-06-02T21:48:54.841Z,67.98
2018-06-02T21:51:23.155Z,68.20
2018-06-02T21:53:51.426Z,68.53
2018-06-02T21:56:20.534Z,68.73
2018-06-02T21:58:48.883Z,69.27
2018-06-02T22:01:17.950Z,69.17
2018-06-02T22:03:46.255Z,69.95
2018-06-02T22:06:15.534Z,70.66
2018-06-02T22:08:43.810Z,70.60
2018-06-02T22:11:12.853Z,71.64
2018-06-02T22:13:42.039Z,72.17
2018-06-02T22:16:10.371Z,72.08
2018-06-02T22:18:38.653Z,72.91
2018-06-02T22:21:06.947Z,73.15
2018-06-02T22:23:35.248Z,73.68
2018-06-02T22:26:03.503Z,74.16
2018-06-02T22:28:32.555Z,74.52
2018-06-02T22:31:00.844Z,74.74
2018-06-02T22:33:29.121Z,74.76
2018-06-02T22:35:57.411Z,74.77
2018-06-02T22:38:25.677Z,75.31
2018-06-02T22:40:54.718Z,75.47
2018-06-02T22:43:23.044Z,75.52
2018-06-02T22:45:51.347Z,75.66
2018-06-02T22:48:19.642Z,75.86
2018-06-02T22:50:47.915Z,75.72
2018-06-02T22:53:16.189Z,75.54
2018-06-02T22:55:44.454Z,76.05
2018-06-02T22:58:12.790Z,76.31
2018-06-02T23:00:41.118Z,76.14
2018-06-02T23:03:10.159Z,75.78
2018-06-02T23:05:38.473Z,75.90
2018-06-02T23:08:06.747Z,76.37
2018-06-02T23:10:35.010Z,76.08
2018-06-02T23:13:03.299Z,76.59
2018-06-02T23:15:31.551Z,76.60
2018-06-02T23:17:59.819Z,76.86
2018-06-02T23:20:28.154Z,76.68
2018-06-02T23:22:57.177Z,76.56
2018-06-02T23:25:25.453Z,76.79
2018-06-02T23:27:54.521Z,76.94
2018-06-02T23:30:22.793Z,76.68
2018-06-02T23:32:51.137Z,76.51
2018-06-02T23:35:20.220Z,77.04
2018-06-02T23:37:48.499Z,76.79
2018-06-02T23:40:16.764Z,76.64
2018-06-02T23:42:46.039Z,76.88
2018-06-02T23:45:15.075Z,76.33
2018-06-02T23:47:43.394Z,76.94
2018-06-02T23:50:11.676Z,76.69
2018-06-02T23:52:39.919Z,77.23
2018-06-02T23:55:09.036Z,77.08
2018-06-02T23:57:38.102Z,76.85
